sensor_id;sensor_type;location;lat;lon;timestamp;P1;durP1;ratioP1;P2;durP2;ratioP2
1567;SDS011;777;47.156;8.326;2022-12-20T00:01:45;16.55;;;12.27;;
1567;SDS011;777;47.156;8.326;2022-12-20T00:04:13;16.38;;;11.73;;
1567;SDS011;777;47.156;8.326;2022-12-20T00:06:40;16.83;;;12.13;;
1567;SDS011;777;47.156;8.326;2022-12-20T00:09:08;17.30;;;13.00;;
1567;SDS011;777;47.156;8.326;2022-12-20T00:11:37;19.35;;;14.18;;
1567;SDS011;777;47.156;8.326;2022-12-20T00:14:05;16.63;;;12.43;;
1567;SDS011;777;47.156;8.326;2022-12-20T00:16:32;16.08;;;12.95;;
1567;SDS011;777;47.156;8.326;2022-12-20T00:19:00;18.27;;;13.73;;
1567;SDS011;777;47.156;8.326;2022-12-20T00:21:30;17.73;;;13.07;;
1567;SDS011;777;47.156;8.326;2022-12-20T00:23:58;20.05;;;12.68;;
1567;SDS011;777;47.156;8.326;2022-12-20T00:26:26;16.10;;;12.98;;
1567;SDS011;777;47.156;8.326;2022-12-20T00:28:55;15.63;;;11.95;;
1567;SDS011;777;47.156;8.326;2022-12-20T00:31:23;14.65;;;12.40;;
1567;SDS011;777;47.156;8.326;2022-12-20T00:33:51;15.15;;;12.02;;
1567;SDS011;777;47.156;8.326;2022-12-20T00:36:20;14.88;;;11.85;;
1567;SDS011;777;47.156;8.326;2022-12-20T00:38:50;14.23;;;11.07;;
1567;SDS011;777;47.156;8.326;2022-12-20T00:41:18;13.73;;;11.77;;
1567;SDS011;777;47.156;8.326;2022-12-20T00:43:46;13.55;;;11.02;;
1567;SDS011;777;47.156;8.326;2022-12-20T00:46:17;14.82;;;11.27;;
1567;SDS011;777;47.156;8.326;2022-12-20T00:48:45;14.32;;;11.68;;
1567;SDS011;777;47.156;8.326;2022-12-20T00:51:13;14.55;;;12.20;;
1567;SDS011;777;47.156;8.326;2022-12-20T00:53:42;16.20;;;11.60;;
1567;SDS011;777;47.156;8.326;2022-12-20T00:56:11;17.58;;;12.32;;
1567;SDS011;777;47.156;8.326;2022-12-20T00:58:39;17.35;;;12.82;;
1567;SDS011;777;47.156;8.326;2022-12-20T01:01:13;14.70;;;12.40;;
1567;SDS011;777;47.156;8.326;2022-12-20T01:03:42;15.93;;;12.95;;
1567;SDS011;777;47.156;8.326;2022-12-20T01:06:10;18.42;;;13.85;;
1567;SDS011;777;47.156;8.326;2022-12-20T01:08:37;17.55;;;12.65;;
1567;SDS011;777;47.156;8.326;2022-12-20T01:11:05;14.93;;;12.13;;
1567;SDS011;777;47.156;8.326;2022-12-20T01:13:36;14.68;;;12.02;;
1567;SDS011;777;47.156;8.326;2022-12-20T01:16:05;15.93;;;12.80;;
1567;SDS011;777;47.156;8.326;2022-12-20T01:18:33;14.98;;;12.10;;
1567;SDS011;777;47.156;8.326;2022-12-20T01:21:01;13.00;;;10.73;;
1567;SDS011;777;47.156;8.326;2022-12-20T01:23:29;13.20;;;10.77;;
1567;SDS011;777;47.156;8.326;2022-12-20T01:25:57;12.90;;;11.07;;
1567;SDS011;777;47.156;8.326;2022-12-20T01:28:25;13.48;;;11.00;;
1567;SDS011;777;47.156;8.326;2022-12-20T01:30:53;13.68;;;10.90;;
1567;SDS011;777;47.156;8.326;2022-12-20T01:33:20;13.10;;;10.35;;
1567;SDS011;777;47.156;8.326;2022-12-20T01:35:54;13.82;;;10.40;;
1567;SDS011;777;47.156;8.326;2022-12-20T01:38:22;13.75;;;11.02;;
1567;SDS011;777;47.156;8.326;2022-12-20T01:40:49;12.32;;;10.68;;
1567;SDS011;777;47.156;8.326;2022-12-20T01:43:17;12.48;;;9.85;;
1567;SDS011;777;47.156;8.326;2022-12-20T01:45:45;12.90;;;10.73;;
1567;SDS011;777;47.156;8.326;2022-12-20T01:48:14;13.55;;;10.65;;
1567;SDS011;777;47.156;8.326;2022-12-20T01:50:43;14.88;;;10.98;;
1567;SDS011;777;47.156;8.326;2022-12-20T01:53:12;12.98;;;9.80;;
1567;SDS011;777;47.156;8.326;2022-12-20T01:55:40;12.52;;;9.57;;
1567;SDS011;777;47.156;8.326;2022-12-20T01:58:08;12.82;;;9.68;;
1567;SDS011;777;47.156;8.326;2022-12-20T02:00:37;11.60;;;9.45;;
1567;SDS011;777;47.156;8.326;2022-12-20T02:03:06;12.18;;;9.95;;
1567;SDS011;777;47.156;8.326;2022-12-20T02:05:37;13.52;;;9.93;;
1567;SDS011;777;47.156;8.326;2022-12-20T02:08:05;13.30;;;11.43;;
1567;SDS011;777;47.156;8.326;2022-12-20T02:10:36;15.48;;;11.32;;
1567;SDS011;777;47.156;8.326;2022-12-20T02:13:18;14.52;;;11.98;;
1567;SDS011;777;47.156;8.326;2022-12-20T02:15:53;14.50;;;11.85;;
1567;SDS011;777;47.156;8.326;2022-12-20T02:18:21;13.88;;;10.50;;
1567;SDS011;777;47.156;8.326;2022-12-20T02:21:00;12.60;;;10.50;;
1567;SDS011;777;47.156;8.326;2022-12-20T02:23:58;14.52;;;11.07;;
1567;SDS011;777;47.156;8.326;2022-12-20T02:26:59;11.05;;;9.75;;
1567;SDS011;777;47.156;8.326;2022-12-20T02:30:02;13.10;;;10.30;;
1567;SDS011;777;47.156;8.326;2022-12-20T02:32:32;11.75;;;10.00;;
1567;SDS011;777;47.156;8.326;2022-12-20T02:35:04;12.50;;;9.68;;
1567;SDS011;777;47.156;8.326;2022-12-20T02:37:33;14.27;;;9.40;;
1567;SDS011;777;47.156;8.326;2022-12-20T02:40:00;10.88;;;9.00;;
1567;SDS011;777;47.156;8.326;2022-12-20T02:42:29;12.35;;;9.45;;
1567;SDS011;777;47.156;8.326;2022-12-20T02:44:59;12.93;;;9.73;;
1567;SDS011;777;47.156;8.326;2022-12-20T02:47:41;14.63;;;9.85;;
1567;SDS011;777;47.156;8.326;2022-12-20T02:50:13;11.40;;;8.63;;
1567;SDS011;777;47.156;8.326;2022-12-20T02:52:45;12.50;;;10.20;;
1567;SDS011;777;47.156;8.326;2022-12-20T02:55:13;12.10;;;9.38;;
1567;SDS011;777;47.156;8.326;2022-12-20T02:57:42;13.02;;;9.93;;
1567;SDS011;777;47.156;8.326;2022-12-20T03:00:15;12.13;;;8.40;;
1567;SDS011;777;47.156;8.326;2022-12-20T03:02:44;12.18;;;8.98;;
1567;SDS011;777;47.156;8.326;2022-12-20T03:05:29;11.90;;;8.38;;
1567;SDS011;777;47.156;8.326;2022-12-20T03:07:59;14.90;;;8.50;;
1567;SDS011;777;47.156;8.326;2022-12-20T03:10:27;13.02;;;8.98;;
1567;SDS011;777;47.156;8.326;2022-12-20T03:12:54;10.02;;;8.80;;
1567;SDS011;777;47.156;8.326;2022-12-20T03:15:23;11.38;;;9.15;;
1567;SDS011;777;47.156;8.326;2022-12-20T03:17:53;10.57;;;8.50;;
1567;SDS011;777;47.156;8.326;2022-12-20T03:20:20;28.13;;;19.75;;
1567;SDS011;777;47.156;8.326;2022-12-20T03:22:47;31.90;;;23.48;;
1567;SDS011;777;47.156;8.326;2022-12-20T03:25:15;26.75;;;18.33;;
1567;SDS011;777;47.156;8.326;2022-12-20T03:27:42;16.25;;;12.55;;
1567;SDS011;777;47.156;8.326;2022-12-20T03:30:10;12.18;;;10.88;;
1567;SDS011;777;47.156;8.326;2022-12-20T03:32:40;14.88;;;11.98;;
1567;SDS011;777;47.156;8.326;2022-12-20T03:35:07;15.88;;;13.88;;
1567;SDS011;777;47.156;8.326;2022-12-20T03:37:38;14.30;;;11.85;;
1567;SDS011;777;47.156;8.326;2022-12-20T03:40:06;12.07;;;10.77;;
1567;SDS011;777;47.156;8.326;2022-12-20T03:42:34;11.65;;;9.80;;
1567;SDS011;777;47.156;8.326;2022-12-20T03:45:02;12.23;;;9.02;;
1567;SDS011;777;47.156;8.326;2022-12-20T03:47:30;12.23;;;9.25;;
1567;SDS011;777;47.156;8.326;2022-12-20T03:49:58;12.25;;;8.63;;
1567;SDS011;777;47.156;8.326;2022-12-20T03:52:29;12.52;;;10.43;;
1567;SDS011;777;47.156;8.326;2022-12-20T03:54:56;11.25;;;8.95;;
1567;SDS011;777;47.156;8.326;2022-12-20T03:57:30;10.25;;;8.32;;
1567;SDS011;777;47.156;8.326;2022-12-20T03:59:58;9.45;;;7.68;;
1567;SDS011;777;47.156;8.326;2022-12-20T04:02:25;9.32;;;7.47;;
1567;SDS011;777;47.156;8.326;2022-12-20T04:04:53;9.30;;;7.32;;
1567;SDS011;777;47.156;8.326;2022-12-20T04:07:22;8.43;;;7.40;;
1567;SDS011;777;47.156;8.326;2022-12-20T04:09:49;8.93;;;7.60;;
1567;SDS011;777;47.156;8.326;2022-12-20T04:12:16;8.77;;;7.22;;
1567;SDS011;777;47.156;8.326;2022-12-20T04:14:44;7.63;;;6.47;;
1567;SDS011;777;47.156;8.326;2022-12-20T04:17:11;10.65;;;6.70;;
1567;SDS011;777;47.156;8.326;2022-12-20T04:19:39;8.73;;;7.00;;
1567;SDS011;777;47.156;8.326;2022-12-20T04:22:07;9.95;;;7.30;;
1567;SDS011;777;47.156;8.326;2022-12-20T04:24:47;8.05;;;6.78;;
1567;SDS011;777;47.156;8.326;2022-12-20T04:27:20;9.18;;;7.15;;
1567;SDS011;777;47.156;8.326;2022-12-20T04:29:49;9.07;;;7.65;;
1567;SDS011;777;47.156;8.326;2022-12-20T04:32:18;9.65;;;6.95;;
1567;SDS011;777;47.156;8.326;2022-12-20T04:34:45;6.40;;;5.80;;
1567;SDS011;777;47.156;8.326;2022-12-20T04:37:12;8.75;;;6.88;;
1567;SDS011;777;47.156;8.326;2022-12-20T04:39:51;8.23;;;6.65;;
1567;SDS011;777;47.156;8.326;2022-12-20T04:42:23;7.80;;;6.22;;
1567;SDS011;777;47.156;8.326;2022-12-20T04:44:51;8.63;;;6.90;;
1567;SDS011;777;47.156;8.326;2022-12-20T04:47:25;9.25;;;6.72;;
1567;SDS011;777;47.156;8.326;2022-12-20T04:49:53;8.45;;;6.13;;
1567;SDS011;777;47.156;8.326;2022-12-20T04:52:20;7.45;;;6.10;;
1567;SDS011;777;47.156;8.326;2022-12-20T04:55:07;8.65;;;6.97;;
1567;SDS011;777;47.156;8.326;2022-12-20T04:57:35;7.68;;;6.53;;
1567;SDS011;777;47.156;8.326;2022-12-20T05:00:04;6.97;;;5.93;;
1567;SDS011;777;47.156;8.326;2022-12-20T05:02:38;6.75;;;5.53;;
1567;SDS011;777;47.156;8.326;2022-12-20T05:05:08;7.78;;;5.30;;
1567;SDS011;777;47.156;8.326;2022-12-20T05:07:42;6.25;;;5.13;;
1567;SDS011;777;47.156;8.326;2022-12-20T05:10:11;5.95;;;4.70;;
1567;SDS011;777;47.156;8.326;2022-12-20T05:12:39;7.93;;;5.93;;
1567;SDS011;777;47.156;8.326;2022-12-20T05:15:10;6.82;;;5.45;;
1567;SDS011;777;47.156;8.326;2022-12-20T05:17:37;7.47;;;5.53;;
1567;SDS011;777;47.156;8.326;2022-12-20T05:20:05;6.85;;;5.38;;
1567;SDS011;777;47.156;8.326;2022-12-20T05:22:33;5.47;;;4.45;;
1567;SDS011;777;47.156;8.326;2022-12-20T05:25:19;6.75;;;5.20;;
1567;SDS011;777;47.156;8.326;2022-12-20T05:28:06;7.72;;;5.60;;
1567;SDS011;777;47.156;8.326;2022-12-20T05:30:35;8.10;;;5.57;;
1567;SDS011;777;47.156;8.326;2022-12-20T05:33:02;6.00;;;5.40;;
1567;SDS011;777;47.156;8.326;2022-12-20T05:35:30;9.18;;;6.70;;
1567;SDS011;777;47.156;8.326;2022-12-20T05:38:03;6.93;;;5.28;;
1567;SDS011;777;47.156;8.326;2022-12-20T05:40:32;6.05;;;4.57;;
1567;SDS011;777;47.156;8.326;2022-12-20T05:43:00;6.18;;;4.75;;
1567;SDS011;777;47.156;8.326;2022-12-20T05:45:35;5.43;;;4.30;;
1567;SDS011;777;47.156;8.326;2022-12-20T05:48:09;5.68;;;4.38;;
1567;SDS011;777;47.156;8.326;2022-12-20T05:50:38;6.05;;;4.80;;
1567;SDS011;777;47.156;8.326;2022-12-20T05:53:26;6.85;;;4.40;;
1567;SDS011;777;47.156;8.326;2022-12-20T05:55:58;6.72;;;4.97;;
1567;SDS011;777;47.156;8.326;2022-12-20T05:58:30;5.43;;;4.63;;
1567;SDS011;777;47.156;8.326;2022-12-20T06:01:03;6.78;;;5.05;;
1567;SDS011;777;47.156;8.326;2022-12-20T06:03:35;6.57;;;5.82;;
1567;SDS011;777;47.156;8.326;2022-12-20T06:06:06;6.13;;;5.13;;
1567;SDS011;777;47.156;8.326;2022-12-20T06:08:33;6.78;;;5.60;;
1567;SDS011;777;47.156;8.326;2022-12-20T06:11:04;6.90;;;4.85;;
1567;SDS011;777;47.156;8.326;2022-12-20T06:13:40;6.50;;;5.07;;
1567;SDS011;777;47.156;8.326;2022-12-20T06:16:07;5.45;;;4.63;;
1567;SDS011;777;47.156;8.326;2022-12-20T06:18:34;7.65;;;4.70;;
1567;SDS011;777;47.156;8.326;2022-12-20T06:21:02;6.15;;;4.22;;
1567;SDS011;777;47.156;8.326;2022-12-20T06:23:30;5.63;;;4.80;;
1567;SDS011;777;47.156;8.326;2022-12-20T06:26:06;5.32;;;4.30;;
1567;SDS011;777;47.156;8.326;2022-12-20T06:28:39;4.22;;;3.70;;
1567;SDS011;777;47.156;8.326;2022-12-20T06:31:07;5.55;;;4.18;;
1567;SDS011;777;47.156;8.326;2022-12-20T06:33:41;5.78;;;3.95;;
1567;SDS011;777;47.156;8.326;2022-12-20T06:36:09;6.13;;;3.72;;
1567;SDS011;777;47.156;8.326;2022-12-20T06:38:36;5.10;;;3.53;;
1567;SDS011;777;47.156;8.326;2022-12-20T06:41:04;5.22;;;3.85;;
1567;SDS011;777;47.156;8.326;2022-12-20T06:43:32;4.15;;;3.33;;
1567;SDS011;777;47.156;8.326;2022-12-20T06:45:59;5.03;;;3.88;;
1567;SDS011;777;47.156;8.326;2022-12-20T06:48:26;4.53;;;3.17;;
1567;SDS011;777;47.156;8.326;2022-12-20T06:50:54;3.58;;;3.22;;
1567;SDS011;777;47.156;8.326;2022-12-20T06:53:22;4.88;;;3.30;;
1567;SDS011;777;47.156;8.326;2022-12-20T06:55:49;6.40;;;4.20;;
1567;SDS011;777;47.156;8.326;2022-12-20T06:58:17;9.27;;;6.32;;
1567;SDS011;777;47.156;8.326;2022-12-20T07:00:48;16.65;;;9.25;;
1567;SDS011;777;47.156;8.326;2022-12-20T07:03:15;12.30;;;8.73;;
1567;SDS011;777;47.156;8.326;2022-12-20T07:05:42;10.77;;;7.10;;
1567;SDS011;777;47.156;8.326;2022-12-20T07:08:09;11.20;;;8.15;;
1567;SDS011;777;47.156;8.326;2022-12-20T07:10:36;9.68;;;7.82;;
1567;SDS011;777;47.156;8.326;2022-12-20T07:13:03;8.25;;;7.43;;
1567;SDS011;777;47.156;8.326;2022-12-20T07:15:30;9.98;;;7.47;;
1567;SDS011;777;47.156;8.326;2022-12-20T07:17:58;16.27;;;11.50;;
1567;SDS011;777;47.156;8.326;2022-12-20T07:20:25;12.80;;;9.25;;
1567;SDS011;777;47.156;8.326;2022-12-20T07:22:53;11.68;;;8.63;;
1567;SDS011;777;47.156;8.326;2022-12-20T07:25:20;11.85;;;7.72;;
1567;SDS011;777;47.156;8.326;2022-12-20T07:27:47;10.63;;;7.32;;
1567;SDS011;777;47.156;8.326;2022-12-20T07:30:15;11.63;;;7.55;;
1567;SDS011;777;47.156;8.326;2022-12-20T07:32:42;15.10;;;10.80;;
1567;SDS011;777;47.156;8.326;2022-12-20T07:35:10;12.70;;;9.10;;
1567;SDS011;777;47.156;8.326;2022-12-20T07:37:38;10.60;;;8.13;;
1567;SDS011;777;47.156;8.326;2022-12-20T07:40:06;13.88;;;7.28;;
1567;SDS011;777;47.156;8.326;2022-12-20T07:42:34;9.07;;;7.35;;
1567;SDS011;777;47.156;8.326;2022-12-20T07:45:01;10.90;;;7.20;;
1567;SDS011;777;47.156;8.326;2022-12-20T07:47:28;8.98;;;7.05;;
1567;SDS011;777;47.156;8.326;2022-12-20T07:49:55;9.70;;;7.28;;
1567;SDS011;777;47.156;8.326;2022-12-20T07:52:24;9.63;;;7.07;;
1567;SDS011;777;47.156;8.326;2022-12-20T07:54:55;9.05;;;6.78;;
1567;SDS011;777;47.156;8.326;2022-12-20T07:57:26;20.45;;;11.93;;
1567;SDS011;777;47.156;8.326;2022-12-20T07:59:58;21.92;;;15.75;;
1567;SDS011;777;47.156;8.326;2022-12-20T08:02:38;12.20;;;9.48;;
1567;SDS011;777;47.156;8.326;2022-12-20T08:05:09;12.00;;;8.05;;
1567;SDS011;777;47.156;8.326;2022-12-20T08:07:38;10.52;;;8.18;;
1567;SDS011;777;47.156;8.326;2022-12-20T08:10:07;10.52;;;7.80;;
1567;SDS011;777;47.156;8.326;2022-12-20T08:12:36;8.63;;;6.45;;
1567;SDS011;777;47.156;8.326;2022-12-20T08:15:06;30.13;;;20.23;;
1567;SDS011;777;47.156;8.326;2022-12-20T08:17:34;15.98;;;10.98;;
1567;SDS011;777;47.156;8.326;2022-12-20T08:20:01;26.30;;;16.77;;
1567;SDS011;777;47.156;8.326;2022-12-20T08:22:30;10.40;;;8.23;;
1567;SDS011;777;47.156;8.326;2022-12-20T08:24:58;8.77;;;7.10;;
1567;SDS011;777;47.156;8.326;2022-12-20T08:27:26;7.78;;;6.30;;
1567;SDS011;777;47.156;8.326;2022-12-20T08:29:53;7.47;;;6.28;;
1567;SDS011;777;47.156;8.326;2022-12-20T08:32:20;7.80;;;5.63;;
1567;SDS011;777;47.156;8.326;2022-12-20T08:34:47;9.50;;;5.88;;
1567;SDS011;777;47.156;8.326;2022-12-20T08:37:14;8.93;;;6.05;;
1567;SDS011;777;47.156;8.326;2022-12-20T08:39:42;8.20;;;5.45;;
1567;SDS011;777;47.156;8.326;2022-12-20T08:42:11;8.25;;;5.43;;
1567;SDS011;777;47.156;8.326;2022-12-20T08:44:38;7.53;;;5.30;;
1567;SDS011;777;47.156;8.326;2022-12-20T08:47:05;6.63;;;5.00;;
1567;SDS011;777;47.156;8.326;2022-12-20T08:49:32;7.38;;;4.78;;
1567;SDS011;777;47.156;8.326;2022-12-20T08:51:59;6.22;;;4.53;;
1567;SDS011;777;47.156;8.326;2022-12-20T08:54:26;9.23;;;4.28;;
1567;SDS011;777;47.156;8.326;2022-12-20T08:56:53;5.70;;;3.83;;
1567;SDS011;777;47.156;8.326;2022-12-20T08:59:22;5.10;;;3.40;;
1567;SDS011;777;47.156;8.326;2022-12-20T09:01:50;4.80;;;3.70;;
1567;SDS011;777;47.156;8.326;2022-12-20T09:04:18;4.93;;;3.08;;
1567;SDS011;777;47.156;8.326;2022-12-20T09:06:45;4.93;;;2.72;;
1567;SDS011;777;47.156;8.326;2022-12-20T09:09:12;4.25;;;3.05;;
1567;SDS011;777;47.156;8.326;2022-12-20T09:11:40;4.32;;;2.70;;
1567;SDS011;777;47.156;8.326;2022-12-20T09:14:07;4.22;;;2.45;;
1567;SDS011;777;47.156;8.326;2022-12-20T09:16:36;4.90;;;3.10;;
1567;SDS011;777;47.156;8.326;2022-12-20T09:19:03;4.28;;;2.95;;
1567;SDS011;777;47.156;8.326;2022-12-20T09:21:30;5.47;;;2.65;;
1567;SDS011;777;47.156;8.326;2022-12-20T09:23:57;3.80;;;2.30;;
1567;SDS011;777;47.156;8.326;2022-12-20T09:26:24;4.75;;;3.08;;
1567;SDS011;777;47.156;8.326;2022-12-20T09:28:52;5.07;;;2.85;;
1567;SDS011;777;47.156;8.326;2022-12-20T09:31:19;4.85;;;2.58;;
1567;SDS011;777;47.156;8.326;2022-12-20T09:33:49;4.82;;;2.75;;
1567;SDS011;777;47.156;8.326;2022-12-20T09:36:19;4.30;;;2.50;;
1567;SDS011;777;47.156;8.326;2022-12-20T09:38:47;5.75;;;3.08;;
1567;SDS011;777;47.156;8.326;2022-12-20T09:41:17;3.88;;;2.50;;
1567;SDS011;777;47.156;8.326;2022-12-20T09:43:49;4.07;;;2.90;;
1567;SDS011;777;47.156;8.326;2022-12-20T09:46:17;5.30;;;3.22;;
1567;SDS011;777;47.156;8.326;2022-12-20T09:48:44;3.88;;;3.25;;
1567;SDS011;777;47.156;8.326;2022-12-20T09:51:16;4.35;;;3.38;;
1567;SDS011;777;47.156;8.326;2022-12-20T09:54:11;5.82;;;3.60;;
1567;SDS011;777;47.156;8.326;2022-12-20T09:56:46;15.23;;;8.13;;
1567;SDS011;777;47.156;8.326;2022-12-20T09:59:19;18.27;;;9.68;;
1567;SDS011;777;47.156;8.326;2022-12-20T10:01:47;13.55;;;8.38;;
1567;SDS011;777;47.156;8.326;2022-12-20T10:04:18;13.07;;;7.53;;
1567;SDS011;777;47.156;8.326;2022-12-20T10:06:51;29.75;;;17.58;;
1567;SDS011;777;47.156;8.326;2022-12-20T10:09:31;15.38;;;8.77;;
1567;SDS011;777;47.156;8.326;2022-12-20T10:12:14;8.13;;;4.93;;
1567;SDS011;777;47.156;8.326;2022-12-20T10:14:54;5.07;;;4.00;;
1567;SDS011;777;47.156;8.326;2022-12-20T10:17:32;5.93;;;3.45;;
1567;SDS011;777;47.156;8.326;2022-12-20T10:20:08;11.23;;;7.80;;
1567;SDS011;777;47.156;8.326;2022-12-20T10:22:51;13.38;;;8.23;;
1567;SDS011;777;47.156;8.326;2022-12-20T10:25:22;11.02;;;7.43;;
1567;SDS011;777;47.156;8.326;2022-12-20T10:27:54;5.20;;;3.80;;
1567;SDS011;777;47.156;8.326;2022-12-20T10:30:23;5.00;;;3.65;;
1567;SDS011;777;47.156;8.326;2022-12-20T10:32:52;6.78;;;4.97;;
1567;SDS011;777;47.156;8.326;2022-12-20T10:35:22;5.38;;;3.60;;
1567;SDS011;777;47.156;8.326;2022-12-20T10:37:59;9.65;;;4.60;;
1567;SDS011;777;47.156;8.326;2022-12-20T10:40:29;6.25;;;4.05;;
1567;SDS011;777;47.156;8.326;2022-12-20T10:42:57;8.25;;;3.95;;
1567;SDS011;777;47.156;8.326;2022-12-20T10:45:32;6.90;;;3.60;;
1567;SDS011;777;47.156;8.326;2022-12-20T10:48:03;6.15;;;4.03;;
1567;SDS011;777;47.156;8.326;2022-12-20T10:50:31;6.30;;;3.72;;
1567;SDS011;777;47.156;8.326;2022-12-20T10:53:07;6.50;;;3.58;;
1567;SDS011;777;47.156;8.326;2022-12-20T10:55:45;4.22;;;3.33;;
1567;SDS011;777;47.156;8.326;2022-12-20T10:58:14;7.03;;;3.15;;
1567;SDS011;777;47.156;8.326;2022-12-20T11:00:42;5.70;;;3.30;;
1567;SDS011;777;47.156;8.326;2022-12-20T11:03:12;7.45;;;3.00;;
1567;SDS011;777;47.156;8.326;2022-12-20T11:05:51;6.95;;;3.28;;
1567;SDS011;777;47.156;8.326;2022-12-20T11:08:21;3.55;;;2.50;;
1567;SDS011;777;47.156;8.326;2022-12-20T11:10:51;6.50;;;3.45;;
1567;SDS011;777;47.156;8.326;2022-12-20T11:13:37;5.30;;;4.13;;
1567;SDS011;777;47.156;8.326;2022-12-20T11:16:04;7.13;;;3.97;;
1567;SDS011;777;47.156;8.326;2022-12-20T11:18:37;4.85;;;3.47;;
1567;SDS011;777;47.156;8.326;2022-12-20T11:21:17;4.45;;;2.80;;
1567;SDS011;777;47.156;8.326;2022-12-20T11:23:54;4.38;;;2.85;;
1567;SDS011;777;47.156;8.326;2022-12-20T11:26:30;4.38;;;2.78;;
1567;SDS011;777;47.156;8.326;2022-12-20T11:29:10;6.85;;;3.10;;
1567;SDS011;777;47.156;8.326;2022-12-20T11:31:50;3.20;;;2.55;;
1567;SDS011;777;47.156;8.326;2022-12-20T11:34:32;4.10;;;2.80;;
1567;SDS011;777;47.156;8.326;2022-12-20T11:37:08;4.10;;;2.78;;
1567;SDS011;777;47.156;8.326;2022-12-20T11:39:53;4.55;;;2.97;;
1567;SDS011;777;47.156;8.326;2022-12-20T11:42:36;3.85;;;2.60;;
1567;SDS011;777;47.156;8.326;2022-12-20T11:45:12;3.90;;;2.80;;
1567;SDS011;777;47.156;8.326;2022-12-20T11:47:53;7.97;;;3.00;;
1567;SDS011;777;47.156;8.326;2022-12-20T11:50:41;5.95;;;3.60;;
1567;SDS011;777;47.156;8.326;2022-12-20T11:53:19;5.65;;;4.32;;
1567;SDS011;777;47.156;8.326;2022-12-20T11:55:53;5.85;;;4.20;;
1567;SDS011;777;47.156;8.326;2022-12-20T11:58:24;6.75;;;4.30;;
1567;SDS011;777;47.156;8.326;2022-12-20T12:00:56;7.43;;;4.55;;
1567;SDS011;777;47.156;8.326;2022-12-20T12:03:27;8.00;;;4.05;;
1567;SDS011;777;47.156;8.326;2022-12-20T12:05:59;5.03;;;3.80;;
1567;SDS011;777;47.156;8.326;2022-12-20T12:08:31;5.25;;;3.47;;
1567;SDS011;777;47.156;8.326;2022-12-20T12:11:08;6.57;;;3.15;;
1567;SDS011;777;47.156;8.326;2022-12-20T12:13:40;5.93;;;3.30;;
1567;SDS011;777;47.156;8.326;2022-12-20T12:16:09;5.15;;;3.25;;
1567;SDS011;777;47.156;8.326;2022-12-20T12:18:41;4.63;;;3.35;;
1567;SDS011;777;47.156;8.326;2022-12-20T12:21:10;4.53;;;2.83;;
1567;SDS011;777;47.156;8.326;2022-12-20T12:23:47;5.80;;;3.20;;
1567;SDS011;777;47.156;8.326;2022-12-20T12:26:28;5.80;;;3.35;;
1567;SDS011;777;47.156;8.326;2022-12-20T12:28:57;9.30;;;3.33;;
1567;SDS011;777;47.156;8.326;2022-12-20T12:31:27;6.57;;;3.30;;
1567;SDS011;777;47.156;8.326;2022-12-20T12:34:03;5.15;;;3.33;;
1567;SDS011;777;47.156;8.326;2022-12-20T12:36:41;4.53;;;3.50;;
1567;SDS011;777;47.156;8.326;2022-12-20T12:46:00;7.72;;;4.25;;
1567;SDS011;777;47.156;8.326;2022-12-20T12:48:30;7.05;;;4.30;;
1567;SDS011;777;47.156;8.326;2022-12-20T12:51:01;7.07;;;4.80;;
1567;SDS011;777;47.156;8.326;2022-12-20T12:53:31;9.02;;;5.07;;
1567;SDS011;777;47.156;8.326;2022-12-20T12:59:09;7.97;;;4.40;;
1567;SDS011;777;47.156;8.326;2022-12-20T13:01:48;5.38;;;4.13;;
1567;SDS011;777;47.156;8.326;2022-12-20T13:04:25;7.78;;;5.18;;
1567;SDS011;777;47.156;8.326;2022-12-20T13:06:55;7.53;;;5.30;;
1567;SDS011;777;47.156;8.326;2022-12-20T13:09:49;9.65;;;6.78;;
1567;SDS011;777;47.156;8.326;2022-12-20T13:18:25;9.55;;;7.07;;
1567;SDS011;777;47.156;8.326;2022-12-20T13:27:26;8.60;;;5.40;;
1567;SDS011;777;47.156;8.326;2022-12-20T13:29:57;10.77;;;5.25;;
1567;SDS011;777;47.156;8.326;2022-12-20T13:38:51;8.95;;;4.70;;
1567;SDS011;777;47.156;8.326;2022-12-20T13:43:52;9.57;;;5.07;;
1567;SDS011;777;47.156;8.326;2022-12-20T13:46:24;7.72;;;5.55;;
1567;SDS011;777;47.156;8.326;2022-12-20T13:51:27;9.18;;;5.32;;
1567;SDS011;777;47.156;8.326;2022-12-20T13:53:57;6.72;;;4.35;;
1567;SDS011;777;47.156;8.326;2022-12-20T13:56:31;9.50;;;4.90;;
1567;SDS011;777;47.156;8.326;2022-12-20T13:59:04;7.82;;;5.75;;
1567;SDS011;777;47.156;8.326;2022-12-20T14:01:45;6.35;;;4.78;;
1567;SDS011;777;47.156;8.326;2022-12-20T14:04:13;8.43;;;4.82;;
1567;SDS011;777;47.156;8.326;2022-12-20T14:06:41;7.30;;;5.10;;
1567;SDS011;777;47.156;8.326;2022-12-20T14:12:01;6.95;;;5.05;;
1567;SDS011;777;47.156;8.326;2022-12-20T14:14:29;7.35;;;4.32;;
1567;SDS011;777;47.156;8.326;2022-12-20T14:16:58;8.02;;;5.00;;
1567;SDS011;777;47.156;8.326;2022-12-20T14:19:40;6.70;;;4.53;;
1567;SDS011;777;47.156;8.326;2022-12-20T14:22:07;6.05;;;4.75;;
1567;SDS011;777;47.156;8.326;2022-12-20T14:24:38;7.78;;;4.90;;
1567;SDS011;777;47.156;8.326;2022-12-20T14:27:08;7.88;;;5.28;;
1567;SDS011;777;47.156;8.326;2022-12-20T14:29:38;5.90;;;4.53;;
1567;SDS011;777;47.156;8.326;2022-12-20T14:32:05;7.07;;;5.03;;
1567;SDS011;777;47.156;8.326;2022-12-20T14:34:43;9.05;;;4.85;;
1567;SDS011;777;47.156;8.326;2022-12-20T14:37:28;9.52;;;5.03;;
1567;SDS011;777;47.156;8.326;2022-12-20T14:39:59;12.35;;;6.20;;
1567;SDS011;777;47.156;8.326;2022-12-20T14:42:31;9.60;;;6.70;;
1567;SDS011;777;47.156;8.326;2022-12-20T14:45:04;8.57;;;4.80;;
1567;SDS011;777;47.156;8.326;2022-12-20T14:47:46;7.45;;;5.07;;
1567;SDS011;777;47.156;8.326;2022-12-20T14:50:16;8.02;;;4.90;;
1567;SDS011;777;47.156;8.326;2022-12-20T14:52:45;7.07;;;4.80;;
1567;SDS011;777;47.156;8.326;2022-12-20T14:55:15;8.13;;;5.20;;
1567;SDS011;777;47.156;8.326;2022-12-20T14:57:44;7.68;;;5.30;;
1567;SDS011;777;47.156;8.326;2022-12-20T15:00:18;6.80;;;4.88;;
1567;SDS011;777;47.156;8.326;2022-12-20T15:02:49;7.30;;;5.30;;
1567;SDS011;777;47.156;8.326;2022-12-20T15:05:37;8.30;;;4.95;;
1567;SDS011;777;47.156;8.326;2022-12-20T15:08:13;7.55;;;4.85;;
1567;SDS011;777;47.156;8.326;2022-12-20T15:10:47;7.55;;;5.05;;
1567;SDS011;777;47.156;8.326;2022-12-20T15:13:20;6.35;;;4.40;;
1567;SDS011;777;47.156;8.326;2022-12-20T15:15:48;7.70;;;4.63;;
1567;SDS011;777;47.156;8.326;2022-12-20T15:18:15;7.35;;;5.00;;
1567;SDS011;777;47.156;8.326;2022-12-20T15:20:45;8.00;;;5.30;;
1567;SDS011;777;47.156;8.326;2022-12-20T15:23:16;9.77;;;5.07;;
1567;SDS011;777;47.156;8.326;2022-12-20T15:25:45;10.27;;;6.18;;
1567;SDS011;777;47.156;8.326;2022-12-20T15:28:15;7.95;;;5.53;;
1567;SDS011;777;47.156;8.326;2022-12-20T15:30:44;7.50;;;4.97;;
1567;SDS011;777;47.156;8.326;2022-12-20T15:33:13;7.65;;;5.25;;
1567;SDS011;777;47.156;8.326;2022-12-20T15:35:42;10.40;;;6.80;;
1567;SDS011;777;47.156;8.326;2022-12-20T15:38:12;10.77;;;7.10;;
1567;SDS011;777;47.156;8.326;2022-12-20T15:40:41;13.15;;;8.57;;
1567;SDS011;777;47.156;8.326;2022-12-20T15:43:12;13.20;;;9.30;;
1567;SDS011;777;47.156;8.326;2022-12-20T15:45:42;15.30;;;7.97;;
1567;SDS011;777;47.156;8.326;2022-12-20T15:48:14;10.13;;;7.38;;
1567;SDS011;777;47.156;8.326;2022-12-20T15:50:43;10.40;;;7.30;;
1567;SDS011;777;47.156;8.326;2022-12-20T15:53:17;11.25;;;7.00;;
1567;SDS011;777;47.156;8.326;2022-12-20T15:55:51;8.57;;;6.45;;
1567;SDS011;777;47.156;8.326;2022-12-20T15:58:20;8.18;;;6.15;;
1567;SDS011;777;47.156;8.326;2022-12-20T16:00:48;6.93;;;5.40;;
1567;SDS011;777;47.156;8.326;2022-12-20T16:03:17;8.82;;;5.20;;
1567;SDS011;777;47.156;8.326;2022-12-20T16:05:45;6.40;;;4.97;;
1567;SDS011;777;47.156;8.326;2022-12-20T16:08:13;7.75;;;4.90;;
1567;SDS011;777;47.156;8.326;2022-12-20T16:10:40;8.07;;;6.20;;
1567;SDS011;777;47.156;8.326;2022-12-20T16:13:11;9.35;;;6.28;;
1567;SDS011;777;47.156;8.326;2022-12-20T16:15:41;9.23;;;6.07;;
1567;SDS011;777;47.156;8.326;2022-12-20T16:18:08;6.60;;;5.20;;
1567;SDS011;777;47.156;8.326;2022-12-20T16:20:36;8.15;;;5.05;;
1567;SDS011;777;47.156;8.326;2022-12-20T16:23:03;7.15;;;4.72;;